createdAt,value
2019-04-16T00:00:51.617Z,4.10
2019-04-16T00:03:27.806Z,5.10
2019-04-16T00:06:22.110Z,4.73
2019-04-16T00:09:00.986Z,4.40
2019-04-16T00:11:41.454Z,4.83
2019-04-16T00:14:22.723Z,5.03
2019-04-16T00:16:52.243Z,5.40
2019-04-16T00:19:22.043Z,5.27
2019-04-16T00:22:17.448Z,4.60
2019-04-16T00:24:50.360Z,4.50
2019-04-16T00:27:20.333Z,5.20
2019-04-16T00:29:49.562Z,4.80
2019-04-16T00:32:31.129Z,4.60
2019-04-16T00:35:02.762Z,5.23
2019-04-16T00:37:32.890Z,4.77
2019-04-16T00:40:03.307Z,4.53
2019-04-16T00:42:33.059Z,4.60
2019-04-16T00:45:02.397Z,5.40
2019-04-16T00:47:31.572Z,4.20
2019-04-16T00:50:00.872Z,4.57
2019-04-16T00:52:30.642Z,5.00
2019-04-16T00:55:00.214Z,5.03
2019-04-16T00:57:30.040Z,5.33
2019-04-16T01:00:01.872Z,4.90
2019-04-16T01:02:31.420Z,4.30
2019-04-16T01:05:01.160Z,5.33
2019-04-16T01:07:30.299Z,4.67
2019-04-16T01:09:59.871Z,5.40
2019-04-16T01:12:29.284Z,5.13
2019-04-16T01:15:00.560Z,4.93
2019-04-16T01:17:29.500Z,5.30
2019-04-16T01:19:59.091Z,5.43
2019-04-16T01:22:28.875Z,5.00
2019-04-16T01:24:58.080Z,5.07
2019-04-16T01:27:37.598Z,4.83
2019-04-16T01:30:20.548Z,4.90
2019-04-16T01:33:14.450Z,4.90
2019-04-16T01:36:03.656Z,5.10
2019-04-16T01:38:41.602Z,5.33
2019-04-16T01:41:16.105Z,5.10
2019-04-16T01:43:45.429Z,5.13
2019-04-16T01:46:15.266Z,5.80
2019-04-16T01:48:45.830Z,5.43
2019-04-16T01:51:16.254Z,4.80
2019-04-16T01:53:45.893Z,5.10
2019-04-16T01:56:15.585Z,4.70
2019-04-16T01:58:45.447Z,5.20
2019-04-16T02:01:15.251Z,5.57
2019-04-16T02:03:48.584Z,5.07
2019-04-16T02:06:16.040Z,5.17
2019-04-16T02:08:45.407Z,5.13
2019-04-16T02:25:51.466Z,4.60
2019-04-16T02:29:15.550Z,4.87
2019-04-16T02:31:38.420Z,4.60
2019-04-16T02:34:07.683Z,5.00
2019-04-16T02:36:37.085Z,5.00
2019-04-16T02:39:09.088Z,4.47
2019-04-16T02:41:38.244Z,4.90
2019-04-16T02:44:14.615Z,4.53
2019-04-16T02:46:38.795Z,5.27
2019-04-16T02:49:08.042Z,4.50
2019-04-16T02:51:51.212Z,4.97
2019-04-16T02:54:45.887Z,5.07
2019-04-16T02:57:30.370Z,5.27
2019-04-16T03:00:03.644Z,4.23
2019-04-16T03:02:46.215Z,5.27
2019-04-16T03:05:35.301Z,5.07
2019-04-16T03:08:07.679Z,4.60
2019-04-16T03:10:37.179Z,5.10
2019-04-16T03:13:06.717Z,4.73
2019-04-16T03:16:09.336Z,4.90
2019-04-16T03:18:46.976Z,5.10
2019-04-16T03:21:16.016Z,5.20
2019-04-16T03:23:45.817Z,4.97
2019-04-16T03:26:17.567Z,5.10
2019-04-16T03:28:46.735Z,5.20
2019-04-16T03:31:22.220Z,4.93
2019-04-16T03:33:50.584Z,4.83
2019-04-16T03:36:19.022Z,6.07
2019-04-16T03:38:48.621Z,5.50
2019-04-16T03:41:18.763Z,5.17
2019-04-16T03:43:48.273Z,5.93
2019-04-16T03:46:17.806Z,5.57
2019-04-16T03:48:47.444Z,5.00
2019-04-16T03:51:16.672Z,6.47
2019-04-16T03:53:49.602Z,5.40
2019-04-16T03:56:19.220Z,5.50
2019-04-16T03:58:48.928Z,5.50
2019-04-16T04:01:18.541Z,5.00
2019-04-16T04:03:48.341Z,5.57
2019-04-16T04:06:22.263Z,4.90
2019-04-16T04:08:53.248Z,5.13
2019-04-16T04:11:24.179Z,4.90
2019-04-16T04:13:53.792Z,5.80
2019-04-16T04:16:23.182Z,5.00
2019-04-16T04:18:52.764Z,5.47
2019-04-16T04:21:22.742Z,5.37
2019-04-16T04:23:52.319Z,5.50
2019-04-16T04:26:21.499Z,5.33
2019-04-16T04:28:51.611Z,5.17
2019-04-16T04:31:21.789Z,5.37
2019-04-16T04:33:50.722Z,4.97
2019-04-16T04:36:23.035Z,5.53
2019-04-16T04:38:51.262Z,4.93
2019-04-16T04:41:23.424Z,4.70
2019-04-16T04:43:51.355Z,5.03
2019-04-16T04:46:21.930Z,4.80
2019-04-16T04:48:55.016Z,5.17
2019-04-16T04:51:22.814Z,5.00
2019-04-16T04:53:52.038Z,4.40
2019-04-16T04:56:21.574Z,4.97
2019-04-16T04:58:50.963Z,4.93
2019-04-16T05:01:23.530Z,5.30
2019-04-16T05:04:27.021Z,4.67
2019-04-16T05:07:05.689Z,4.27
2019-04-16T05:09:36.490Z,5.40
2019-04-16T05:12:08.087Z,4.80
2019-04-16T05:14:40.031Z,4.33
2019-04-16T05:17:09.074Z,5.07
2019-04-16T05:19:38.483Z,5.03
2019-04-16T05:22:07.755Z,4.97
2019-04-16T05:24:37.740Z,5.27
2019-04-16T05:27:09.425Z,5.40
2019-04-16T05:29:38.940Z,5.03
2019-04-16T05:32:11.137Z,4.80
2019-04-16T05:34:40.619Z,4.17
2019-04-16T05:37:09.565Z,4.47
2019-04-16T05:39:39.526Z,4.60
2019-04-16T05:46:18.699Z,5.00
2019-04-16T05:48:47.681Z,4.83
2019-04-16T05:51:17.175Z,4.70
2019-04-16T05:53:51.139Z,4.47
2019-04-16T05:56:52.382Z,4.20
2019-04-16T06:02:50.898Z,3.73
2019-04-16T06:05:26.766Z,4.63
2019-04-16T06:07:58.463Z,4.83
2019-04-16T06:10:29.287Z,4.83
2019-04-16T06:16:43.616Z,4.60
2019-04-16T06:19:46.207Z,4.47
2019-04-16T06:22:46.163Z,4.93
2019-04-16T06:25:53.491Z,4.93
2019-04-16T06:28:41.177Z,4.73
2019-04-16T06:31:50.823Z,4.73
2019-04-16T06:35:11.766Z,5.07
2019-04-16T06:37:45.764Z,4.40
2019-04-16T06:41:42.136Z,4.73
2019-04-16T06:44:12.812Z,5.43
2019-04-16T06:46:51.993Z,5.00
2019-04-16T06:49:39.506Z,4.97
2019-04-16T06:52:20.335Z,4.73
2019-04-16T06:54:57.192Z,5.10
2019-04-16T06:58:03.938Z,4.53
2019-04-16T07:00:55.003Z,5.13
2019-04-16T07:03:42.200Z,5.23
2019-04-16T07:06:35.949Z,4.73
2019-04-16T07:09:11.754Z,5.03
2019-04-16T07:11:53.649Z,4.97
2019-04-16T07:14:16.799Z,5.10
2019-04-16T07:16:46.737Z,5.77
2019-04-16T07:19:17.378Z,5.27
2019-04-16T07:21:49.650Z,4.93
2019-04-16T07:24:22.662Z,4.50
2019-04-16T07:26:51.932Z,5.40
2019-04-16T07:29:33.468Z,4.90
2019-04-16T07:32:26.194Z,5.07
2019-04-16T07:35:33.404Z,5.13
2019-04-16T07:38:23.159Z,5.23
2019-04-16T07:41:20.755Z,5.20
2019-04-16T07:44:21.502Z,5.13
2019-04-16T07:47:09.619Z,5.43
2019-04-16T07:49:44.801Z,5.47
2019-04-16T07:52:25.134Z,5.10
2019-04-16T07:55:12.061Z,4.93
2019-04-16T07:57:41.819Z,5.67
2019-04-16T08:00:12.994Z,5.27
2019-04-16T08:02:42.854Z,4.77
2019-04-16T08:05:12.559Z,5.13
2019-04-16T08:07:42.744Z,5.30
2019-04-16T08:10:12.634Z,5.13
2019-04-16T08:12:47.070Z,4.70
2019-04-16T08:15:17.251Z,5.83
2019-04-16T08:17:49.335Z,4.93
2019-04-16T08:20:21.383Z,5.10
2019-04-16T08:22:53.322Z,5.23
2019-04-16T08:25:33.514Z,5.37
2019-04-16T08:27:59.705Z,5.33
2019-04-16T08:30:34.107Z,4.90
2019-04-16T08:33:02.291Z,5.27
2019-04-16T08:35:31.946Z,5.47
2019-04-16T08:38:01.537Z,5.73
2019-04-16T08:40:31.335Z,5.47
2019-04-16T08:43:00.648Z,5.43
2019-04-16T08:45:30.494Z,5.63
2019-04-16T08:48:00.217Z,5.47
2019-04-16T08:50:30.517Z,5.37
2019-04-16T08:53:01.003Z,5.80
2019-04-16T08:55:30.837Z,5.07
2019-04-16T08:58:05.893Z,5.53
2019-04-16T09:00:34.506Z,5.33
2019-04-16T09:03:06.266Z,5.70
2019-04-16T09:05:41.198Z,6.20
2019-04-16T09:08:22.661Z,6.13
2019-04-16T09:10:52.090Z,5.90
2019-04-16T09:13:30.670Z,5.73
2019-04-16T09:16:10.369Z,6.10
2019-04-16T09:18:56.033Z,5.67
2019-04-16T09:21:27.954Z,5.77
2019-04-16T09:24:15.814Z,6.10
2019-04-16T09:26:52.686Z,6.13
2019-04-16T09:29:48.469Z,5.70
2019-04-16T09:32:39.478Z,5.67
2019-04-16T09:35:40.715Z,5.53
2019-04-16T09:51:06.668Z,5.83
2019-04-16T09:52:46.395Z,6.10
2019-04-16T09:55:18.932Z,6.30
2019-04-16T09:58:13.174Z,6.83
2019-04-16T10:00:27.368Z,6.67
2019-04-16T10:03:22.608Z,6.57
2019-04-16T10:05:51.597Z,7.03
2019-04-16T10:08:20.693Z,6.50
2019-04-16T10:10:49.884Z,6.20
2019-04-16T10:13:30.113Z,6.60
2019-04-16T10:15:50.229Z,6.43
2019-04-16T10:18:19.271Z,7.03
2019-04-16T10:20:48.760Z,6.40
2019-04-16T10:23:24.817Z,7.70
2019-04-16T10:25:54.384Z,7.57
2019-04-16T10:28:26.956Z,7.30
2019-04-16T10:30:57.444Z,7.17
2019-04-16T10:33:27.277Z,7.40
2019-04-16T10:36:01.061Z,7.17
2019-04-16T10:39:04.288Z,8.20
2019-04-16T10:41:41.037Z,7.70
2019-04-16T10:44:19.598Z,6.77
2019-04-16T10:47:23.116Z,7.47
2019-04-16T10:50:04.851Z,7.00
2019-04-16T10:53:08.652Z,7.60
2019-04-16T10:56:04.680Z,6.70
2019-04-16T10:58:51.743Z,7.23
2019-04-16T11:01:31.329Z,7.70
2019-04-16T11:04:13.012Z,7.27
2019-04-16T11:06:43.970Z,7.27
2019-04-16T11:09:12.984Z,7.30
2019-04-16T11:11:42.060Z,6.87
2019-04-16T11:14:11.263Z,7.10
2019-04-16T11:16:42.665Z,6.63
2019-04-16T11:19:12.104Z,7.23
2019-04-16T11:21:41.231Z,7.43
2019-04-16T11:24:10.164Z,6.87
2019-04-16T11:26:39.192Z,7.10
2019-04-16T11:29:09.709Z,7.30
2019-04-16T11:31:39.115Z,7.60
2019-04-16T11:34:11.571Z,7.90
2019-04-16T11:36:40.746Z,8.07
2019-04-16T11:39:11.045Z,7.30
2019-04-16T11:41:40.266Z,7.70
2019-04-16T11:44:16.169Z,7.90
2019-04-16T11:46:43.123Z,7.10
2019-04-16T11:49:12.455Z,7.47
2019-04-16T11:51:41.676Z,7.10
2019-04-16T11:54:17.899Z,7.77
2019-04-16T11:56:47.103Z,8.03
2019-04-16T11:59:16.812Z,7.83
2019-04-16T12:02:06.018Z,7.80
2019-04-16T12:05:03.696Z,7.67
2019-04-16T12:07:53.122Z,7.50
2019-04-16T12:10:40.483Z,7.63
2019-04-16T12:13:22.349Z,8.03
2019-04-16T12:16:13.154Z,7.17
2019-04-16T12:19:00.305Z,7.67
2019-04-16T12:21:43.524Z,7.67
2019-04-16T12:24:34.276Z,7.60
2019-04-16T12:27:34.410Z,7.80
2019-04-16T12:30:21.065Z,7.73
2019-04-16T12:33:07.432Z,8.00
2019-04-16T12:35:40.998Z,8.03
2019-04-16T12:38:18.692Z,7.33
2019-04-16T12:41:10.655Z,8.77
2019-04-16T12:43:51.781Z,8.70
2019-04-16T12:46:30.065Z,8.00
2019-04-16T12:49:17.286Z,8.00
2019-04-16T12:51:51.711Z,9.60
2019-04-16T12:54:41.307Z,8.40
2019-04-16T12:57:32.410Z,8.03
2019-04-16T13:00:13.248Z,8.23
2019-04-16T13:03:10.459Z,8.57
2019-04-16T13:05:45.167Z,7.83
2019-04-16T13:08:33.540Z,8.10
2019-04-16T13:11:35.136Z,8.07
2019-04-16T13:14:24.138Z,7.93
2019-04-16T13:17:05.469Z,8.60
2019-04-16T13:19:38.834Z,8.20
2019-04-16T13:22:10.756Z,8.07
2019-04-16T13:24:48.548Z,8.30
2019-04-16T13:27:23.471Z,7.40
2019-04-16T13:29:52.867Z,8.43
2019-04-16T13:32:21.722Z,8.53
2019-04-16T13:34:50.951Z,7.77
2019-04-16T13:37:20.246Z,8.77
2019-04-16T13:40:07.296Z,8.10
2019-04-16T13:42:36.588Z,7.87
2019-04-16T13:45:25.715Z,8.43
2019-04-16T13:47:55.904Z,8.23
2019-04-16T13:50:28.037Z,8.13
2019-04-16T13:53:05.542Z,7.93
2019-04-16T13:55:53.957Z,8.33
2019-04-16T13:58:48.553Z,7.43
2019-04-16T14:01:21.181Z,8.30
2019-04-16T14:03:50.006Z,7.50
2019-04-16T14:06:19.046Z,7.30
2019-04-16T14:08:48.148Z,8.00
2019-04-16T14:11:19.688Z,7.67
2019-04-16T14:13:50.243Z,7.70
2019-04-16T14:16:21.745Z,8.33
2019-04-16T14:18:51.275Z,7.87
2019-04-16T14:21:20.817Z,7.60
2019-04-16T14:23:50.442Z,8.20
2019-04-16T14:26:19.448Z,7.70
2019-04-16T14:28:52.486Z,7.87
2019-04-16T14:31:21.330Z,8.27
2019-04-16T14:34:12.345Z,7.83
2019-04-16T14:36:41.512Z,7.67
2019-04-16T14:39:21.075Z,7.83
2019-04-16T14:41:50.434Z,7.13
2019-04-16T14:44:20.245Z,7.00
2019-04-16T14:46:50.426Z,7.10
2019-04-16T14:49:20.035Z,7.70
2019-04-16T14:51:52.229Z,7.70
2019-04-16T14:54:35.924Z,6.83
2019-04-16T14:57:10.231Z,7.37
2019-04-16T14:59:42.199Z,7.87
2019-04-16T15:02:29.120Z,6.80
2019-04-16T15:05:15.858Z,8.47
2019-04-16T15:07:52.177Z,7.60
2019-04-16T15:10:35.823Z,7.57
2019-04-16T15:13:16.062Z,7.27
2019-04-16T15:16:13.199Z,7.33
2019-04-16T15:19:03.958Z,6.93
2019-04-16T15:21:54.977Z,7.47
2019-04-16T15:24:31.888Z,7.23
2019-04-16T15:27:18.813Z,6.13
2019-04-16T15:29:57.658Z,6.60
2019-04-16T15:32:46.075Z,6.77
2019-04-16T15:35:20.687Z,5.80
2019-04-16T15:37:59.383Z,6.53
2019-04-16T15:40:39.307Z,6.13
2019-04-16T15:43:19.160Z,5.90
2019-04-16T15:46:25.211Z,6.17
2019-04-16T15:48:57.757Z,6.97
2019-04-16T15:51:50.628Z,7.63
2019-04-16T15:54:42.035Z,6.27
2019-04-16T15:57:42.370Z,6.17
2019-04-16T16:00:39.758Z,6.60
2019-04-16T16:03:26.207Z,6.13
2019-04-16T16:06:20.356Z,6.10
2019-04-16T16:08:52.609Z,5.73
2019-04-16T16:11:26.459Z,6.27
2019-04-16T16:13:59.224Z,6.40
2019-04-16T16:16:41.069Z,5.73
2019-04-16T16:18:58.042Z,5.77
2019-04-16T16:21:27.470Z,6.10
2019-04-16T16:23:57.523Z,5.83
2019-04-16T16:26:26.746Z,5.77
2019-04-16T16:28:56.670Z,5.97
2019-04-16T16:31:32.089Z,6.30
2019-04-16T16:33:56.504Z,6.23
2019-04-16T16:36:28.107Z,5.90
2019-04-16T16:38:58.799Z,5.50
2019-04-16T16:41:28.173Z,7.47
2019-04-16T16:44:00.098Z,5.90
2019-04-16T16:46:58.015Z,6.23
2019-04-16T16:49:27.304Z,5.87
2019-04-16T16:52:17.622Z,6.10
2019-04-16T16:54:47.393Z,5.97
2019-04-16T16:57:24.313Z,5.80
2019-04-16T17:00:20.755Z,6.57
2019-04-16T17:03:12.633Z,5.40
2019-04-16T17:05:42.175Z,6.33
2019-04-16T17:08:12.210Z,6.40
2019-04-16T17:10:42.648Z,5.93
2019-04-16T17:13:14.642Z,6.03
2019-04-16T17:15:43.466Z,6.00
2019-04-16T17:18:13.738Z,6.73
2019-04-16T17:20:42.860Z,8.17
2019-04-16T17:23:16.535Z,8.13
2019-04-16T17:25:45.076Z,5.87
2019-04-16T17:28:18.246Z,7.07
2019-04-16T17:30:48.356Z,6.47
2019-04-16T17:33:20.408Z,7.00
2019-04-16T17:35:50.212Z,6.07
2019-04-16T17:38:30.679Z,6.07
2019-04-16T17:41:02.617Z,5.93
2019-04-16T17:44:27.942Z,5.67
2019-04-16T17:47:36.503Z,6.37
2019-04-16T17:50:46.530Z,7.47
2019-04-16T17:53:25.549Z,7.40
2019-04-16T17:56:12.344Z,8.00
2019-04-16T17:59:06.348Z,6.20
2019-04-16T18:01:53.662Z,6.37
2019-04-16T18:04:31.167Z,7.03
2019-04-16T18:07:19.310Z,6.10
2019-04-16T18:10:17.073Z,5.47
2019-04-16T18:12:56.613Z,6.73
2019-04-16T18:15:54.662Z,7.30
2019-04-16T18:18:28.163Z,6.10
2019-04-16T18:21:19.633Z,9.40
2019-04-16T18:24:10.517Z,6.77
2019-04-16T18:27:14.034Z,6.03
2019-04-16T18:30:05.165Z,6.70
2019-04-16T18:32:55.234Z,7.60
2019-04-16T18:35:32.923Z,6.83
2019-04-16T18:38:27.313Z,7.37
2019-04-16T18:41:31.151Z,6.97
2019-04-16T18:44:19.871Z,6.73
2019-04-16T18:47:06.006Z,6.33
2019-04-16T18:49:35.644Z,7.10
2019-04-16T18:52:07.153Z,6.87
2019-04-16T18:54:36.405Z,7.83
2019-04-16T18:57:05.449Z,6.30
2019-04-16T18:59:35.345Z,6.80
2019-04-16T19:02:08.293Z,6.40
2019-04-16T19:04:37.569Z,6.60
2019-04-16T19:07:07.070Z,6.10
2019-04-16T19:09:36.937Z,7.13
2019-04-16T19:12:06.433Z,5.83
2019-04-16T19:14:36.714Z,6.50
2019-04-16T19:17:07.085Z,6.17
2019-04-16T19:19:37.199Z,6.67
2019-04-16T19:22:06.713Z,6.27
2019-04-16T19:24:36.475Z,6.50
2019-04-16T19:27:06.132Z,5.90
2019-04-16T19:29:35.358Z,6.27
2019-04-16T19:32:06.523Z,7.53
2019-04-16T19:34:40.976Z,7.10
2019-04-16T19:37:07.314Z,6.30
2019-04-16T19:39:39.485Z,5.90
2019-04-16T19:42:11.229Z,6.93
2019-04-16T19:44:40.607Z,6.70
2019-04-16T19:47:09.939Z,6.80
2019-04-16T19:49:39.062Z,6.73
2019-04-16T19:52:08.251Z,6.57
2019-04-16T19:54:37.391Z,6.93
2019-04-16T19:57:06.564Z,6.70
2019-04-16T19:59:35.847Z,6.50
2019-04-16T20:02:04.970Z,6.47
2019-04-16T20:04:34.994Z,6.40
2019-04-16T20:07:04.533Z,6.67
2019-04-16T20:09:34.262Z,6.60
2019-04-16T20:12:04.079Z,6.57
2019-04-16T20:14:36.276Z,7.03
2019-04-16T20:17:04.322Z,6.13
2019-04-16T20:19:35.550Z,6.20
2019-04-16T20:22:05.832Z,6.50
2019-04-16T20:24:34.734Z,6.63
2019-04-16T20:27:06.151Z,6.27
2019-04-16T20:29:35.735Z,6.47
2019-04-16T20:32:05.060Z,6.10
2019-04-16T20:34:34.779Z,6.83
2019-04-16T20:37:04.206Z,6.47
2019-04-16T20:39:33.471Z,6.87
2019-04-16T20:42:03.714Z,6.73
2019-04-16T20:44:32.833Z,6.40
2019-04-16T20:47:07.548Z,6.70
2019-04-16T20:49:32.834Z,5.97
2019-04-16T20:52:02.874Z,6.27
2019-04-16T20:54:31.949Z,6.67
2019-04-16T20:57:01.446Z,6.37
2019-04-16T20:59:30.825Z,6.37
2019-04-16T21:02:00.153Z,5.83
2019-04-16T21:04:29.416Z,6.83
2019-04-16T21:07:07.474Z,6.37
2019-04-16T21:09:39.466Z,6.40
2019-04-16T21:12:12.889Z,6.70
2019-04-16T21:14:40.556Z,7.20
2019-04-16T21:17:10.024Z,7.10
2019-04-16T21:20:01.823Z,7.17
2019-04-16T21:22:31.040Z,6.60
2019-04-16T21:25:00.535Z,6.50
2019-04-16T21:27:31.361Z,7.07
2019-04-16T21:30:03.865Z,6.30
2019-04-16T21:32:48.732Z,6.47
2019-04-16T21:35:21.493Z,6.53
2019-04-16T21:38:02.005Z,6.43
2019-04-16T21:40:31.262Z,6.23
2019-04-16T21:43:06.794Z,6.40
2019-04-16T21:45:31.768Z,6.73
2019-04-16T21:48:01.182Z,6.23
2019-04-16T21:50:30.541Z,6.40
2019-04-16T21:53:00.530Z,6.13
2019-04-16T21:55:29.803Z,6.03
2019-04-16T21:58:00.671Z,6.67
2019-04-16T22:00:59.804Z,6.00
2019-04-16T22:03:30.486Z,6.73
2019-04-16T22:05:59.936Z,5.97
2019-04-16T22:08:29.772Z,6.20
2019-04-16T22:11:00.681Z,6.30
2019-04-16T22:13:30.011Z,6.87
2019-04-16T22:15:59.121Z,6.73
2019-04-16T22:18:28.271Z,6.10
2019-04-16T22:20:57.748Z,6.83
2019-04-16T22:23:26.866Z,6.67
2019-04-16T22:25:57.164Z,6.90
2019-04-16T22:28:27.850Z,6.50
2019-04-16T22:30:57.059Z,6.53
2019-04-16T22:33:26.334Z,6.57
2019-04-16T22:35:55.471Z,7.00
2019-04-16T22:38:25.187Z,6.53
2019-04-16T22:41:13.282Z,6.63
2019-04-16T22:44:05.450Z,6.00
2019-04-16T22:46:40.474Z,7.20
2019-04-16T22:49:09.648Z,6.53
2019-04-16T22:51:39.754Z,6.93
2019-04-16T22:54:10.434Z,6.03
2019-04-16T22:56:52.285Z,5.83
2019-04-16T22:59:21.661Z,6.70
2019-04-16T23:01:53.226Z,7.40
2019-04-16T23:04:22.752Z,7.30
2019-04-16T23:06:52.662Z,6.53
2019-04-16T23:09:23.818Z,7.63
2019-04-16T23:11:55.891Z,6.80
2019-04-16T23:14:24.117Z,6.63
2019-04-16T23:16:53.333Z,6.63
2019-04-16T23:19:22.650Z,6.90
2019-04-16T23:21:52.090Z,6.67
2019-04-16T23:24:23.371Z,6.13
2019-04-16T23:26:52.769Z,6.60
2019-04-16T23:29:22.055Z,6.47
2019-04-16T23:31:55.247Z,6.63
2019-04-16T23:34:22.510Z,7.17
2019-04-16T23:36:51.799Z,6.50
2019-04-16T23:39:21.840Z,6.93
2019-04-16T23:41:50.898Z,6.70
2019-04-16T23:44:29.252Z,6.90
2019-04-16T23:47:21.356Z,7.50
2019-04-16T23:50:03.101Z,6.90
2019-04-16T23:52:37.902Z,6.77
2019-04-16T23:55:38.677Z,6.60
2019-04-16T23:58:15.357Z,6.73
